sensor_id;sensor_type;location;lat;lon;timestamp;P1;durP1;ratioP1;P2;durP2;ratioP2
15764;SDS011;7983;50.744;7.086;2024-02-21T00:02:07;7.15;;;3.40;;
15764;SDS011;7983;50.744;7.086;2024-02-21T00:04:33;6.47;;;3.40;;
15764;SDS011;7983;50.744;7.086;2024-02-21T00:06:58;5.93;;;3.40;;
15764;SDS011;7983;50.744;7.086;2024-02-21T00:09:27;5.45;;;3.10;;
15764;SDS011;7983;50.744;7.086;2024-02-21T00:11:52;8.40;;;3.22;;
15764;SDS011;7983;50.744;7.086;2024-02-21T00:14:18;7.45;;;3.78;;
15764;SDS011;7983;50.744;7.086;2024-02-21T00:16:44;9.00;;;3.45;;
15764;SDS011;7983;50.744;7.086;2024-02-21T00:19:12;5.35;;;3.00;;
15764;SDS011;7983;50.744;7.086;2024-02-21T00:21:39;6.30;;;3.08;;
15764;SDS011;7983;50.744;7.086;2024-02-21T00:24:07;5.68;;;3.17;;
15764;SDS011;7983;50.744;7.086;2024-02-21T00:26:32;6.10;;;3.03;;
15764;SDS011;7983;50.744;7.086;2024-02-21T00:28:58;6.25;;;2.72;;
15764;SDS011;7983;50.744;7.086;2024-02-21T00:31:24;5.47;;;3.03;;
15764;SDS011;7983;50.744;7.086;2024-02-21T00:33:49;6.30;;;3.35;;
15764;SDS011;7983;50.744;7.086;2024-02-21T00:36:15;4.95;;;2.53;;
15764;SDS011;7983;50.744;7.086;2024-02-21T00:38:41;5.75;;;3.10;;
15764;SDS011;7983;50.744;7.086;2024-02-21T00:41:11;5.82;;;2.90;;
15764;SDS011;7983;50.744;7.086;2024-02-21T00:43:37;7.47;;;2.70;;
15764;SDS011;7983;50.744;7.086;2024-02-21T00:46:05;6.85;;;2.85;;
15764;SDS011;7983;50.744;7.086;2024-02-21T00:48:31;4.82;;;3.03;;
15764;SDS011;7983;50.744;7.086;2024-02-21T00:50:57;4.78;;;2.70;;
15764;SDS011;7983;50.744;7.086;2024-02-21T00:53:23;5.00;;;2.70;;
15764;SDS011;7983;50.744;7.086;2024-02-21T00:55:51;6.28;;;2.92;;
15764;SDS011;7983;50.744;7.086;2024-02-21T00:58:19;6.07;;;3.45;;
15764;SDS011;7983;50.744;7.086;2024-02-21T01:00:47;4.70;;;2.78;;
15764;SDS011;7983;50.744;7.086;2024-02-21T01:03:12;5.30;;;2.85;;
15764;SDS011;7983;50.744;7.086;2024-02-21T01:05:38;4.57;;;2.65;;
15764;SDS011;7983;50.744;7.086;2024-02-21T01:08:06;5.97;;;2.60;;
15764;SDS011;7983;50.744;7.086;2024-02-21T01:10:31;3.92;;;2.63;;
15764;SDS011;7983;50.744;7.086;2024-02-21T01:12:57;4.43;;;2.67;;
15764;SDS011;7983;50.744;7.086;2024-02-21T01:15:25;5.63;;;2.78;;
15764;SDS011;7983;50.744;7.086;2024-02-21T01:17:53;4.45;;;2.70;;
15764;SDS011;7983;50.744;7.086;2024-02-21T01:20:19;5.03;;;2.67;;
15764;SDS011;7983;50.744;7.086;2024-02-21T01:22:48;5.20;;;2.70;;
15764;SDS011;7983;50.744;7.086;2024-02-21T01:25:14;6.47;;;2.75;;
15764;SDS011;7983;50.744;7.086;2024-02-21T01:27:39;5.95;;;2.70;;
15764;SDS011;7983;50.744;7.086;2024-02-21T01:30:05;5.45;;;2.90;;
15764;SDS011;7983;50.744;7.086;2024-02-21T01:32:32;3.85;;;2.45;;
15764;SDS011;7983;50.744;7.086;2024-02-21T01:35:02;5.03;;;2.83;;
15764;SDS011;7983;50.744;7.086;2024-02-21T01:37:28;6.15;;;2.58;;
15764;SDS011;7983;50.744;7.086;2024-02-21T01:39:55;5.88;;;2.63;;
15764;SDS011;7983;50.744;7.086;2024-02-21T01:42:21;3.85;;;2.33;;
15764;SDS011;7983;50.744;7.086;2024-02-21T01:44:46;4.00;;;2.40;;
15764;SDS011;7983;50.744;7.086;2024-02-21T01:47:12;4.82;;;2.50;;
15764;SDS011;7983;50.744;7.086;2024-02-21T01:49:42;5.55;;;2.58;;
15764;SDS011;7983;50.744;7.086;2024-02-21T01:52:08;4.57;;;2.50;;
15764;SDS011;7983;50.744;7.086;2024-02-21T01:54:39;4.95;;;2.38;;
15764;SDS011;7983;50.744;7.086;2024-02-21T01:57:04;4.35;;;2.60;;
15764;SDS011;7983;50.744;7.086;2024-02-21T01:59:30;5.65;;;2.63;;
15764;SDS011;7983;50.744;7.086;2024-02-21T02:01:58;6.00;;;2.83;;
15764;SDS011;7983;50.744;7.086;2024-02-21T02:04:25;5.38;;;2.60;;
15764;SDS011;7983;50.744;7.086;2024-02-21T02:06:51;6.13;;;2.83;;
15764;SDS011;7983;50.744;7.086;2024-02-21T02:09:19;4.75;;;2.40;;
15764;SDS011;7983;50.744;7.086;2024-02-21T02:11:45;7.68;;;2.55;;
15764;SDS011;7983;50.744;7.086;2024-02-21T02:14:11;3.72;;;2.50;;
15764;SDS011;7983;50.744;7.086;2024-02-21T02:16:36;4.88;;;2.28;;
15764;SDS011;7983;50.744;7.086;2024-02-21T02:19:04;5.00;;;2.45;;
15764;SDS011;7983;50.744;7.086;2024-02-21T02:21:39;5.07;;;2.92;;
15764;SDS011;7983;50.744;7.086;2024-02-21T02:24:07;4.85;;;2.40;;
15764;SDS011;7983;50.744;7.086;2024-02-21T02:26:37;3.53;;;2.03;;
15764;SDS011;7983;50.744;7.086;2024-02-21T02:29:03;5.20;;;2.40;;
15764;SDS011;7983;50.744;7.086;2024-02-21T02:31:29;6.75;;;2.47;;
15764;SDS011;7983;50.744;7.086;2024-02-21T02:33:54;8.30;;;2.80;;
15764;SDS011;7983;50.744;7.086;2024-02-21T02:36:22;4.97;;;2.55;;
15764;SDS011;7983;50.744;7.086;2024-02-21T02:38:48;5.28;;;2.50;;
15764;SDS011;7983;50.744;7.086;2024-02-21T02:41:15;5.30;;;2.75;;
15764;SDS011;7983;50.744;7.086;2024-02-21T02:43:41;5.38;;;3.15;;
15764;SDS011;7983;50.744;7.086;2024-02-21T02:46:07;4.68;;;2.70;;
15764;SDS011;7983;50.744;7.086;2024-02-21T02:48:37;6.20;;;2.47;;
15764;SDS011;7983;50.744;7.086;2024-02-21T02:51:03;5.63;;;2.60;;
15764;SDS011;7983;50.744;7.086;2024-02-21T02:53:29;5.50;;;2.85;;
15764;SDS011;7983;50.744;7.086;2024-02-21T02:55:57;7.07;;;2.97;;
15764;SDS011;7983;50.744;7.086;2024-02-21T02:58:24;5.03;;;2.67;;
15764;SDS011;7983;50.744;7.086;2024-02-21T03:00:50;6.85;;;2.88;;
15764;SDS011;7983;50.744;7.086;2024-02-21T03:03:16;6.93;;;2.95;;
15764;SDS011;7983;50.744;7.086;2024-02-21T03:05:46;7.47;;;3.42;;
15764;SDS011;7983;50.744;7.086;2024-02-21T03:08:11;7.22;;;3.30;;
15764;SDS011;7983;50.744;7.086;2024-02-21T03:10:37;6.93;;;2.90;;
15764;SDS011;7983;50.744;7.086;2024-02-21T03:13:03;6.43;;;2.97;;
15764;SDS011;7983;50.744;7.086;2024-02-21T03:15:31;5.43;;;2.80;;
15764;SDS011;7983;50.744;7.086;2024-02-21T03:17:56;7.30;;;3.10;;
15764;SDS011;7983;50.744;7.086;2024-02-21T03:20:22;6.72;;;2.70;;
15764;SDS011;7983;50.744;7.086;2024-02-21T03:22:48;4.53;;;2.70;;
15764;SDS011;7983;50.744;7.086;2024-02-21T03:25:13;5.53;;;2.78;;
15764;SDS011;7983;50.744;7.086;2024-02-21T03:27:40;3.38;;;2.30;;
15764;SDS011;7983;50.744;7.086;2024-02-21T03:30:05;6.10;;;2.55;;
15764;SDS011;7983;50.744;7.086;2024-02-21T03:32:31;5.72;;;2.35;;
15764;SDS011;7983;50.744;7.086;2024-02-21T03:34:59;4.15;;;2.70;;
15764;SDS011;7983;50.744;7.086;2024-02-21T03:37:25;4.90;;;2.40;;
15764;SDS011;7983;50.744;7.086;2024-02-21T03:39:53;5.55;;;2.50;;
15764;SDS011;7983;50.744;7.086;2024-02-21T03:42:19;5.18;;;2.70;;
15764;SDS011;7983;50.744;7.086;2024-02-21T03:44:46;5.45;;;2.58;;
15764;SDS011;7983;50.744;7.086;2024-02-21T03:47:12;4.45;;;2.20;;
15764;SDS011;7983;50.744;7.086;2024-02-21T03:49:40;4.82;;;2.20;;
15764;SDS011;7983;50.744;7.086;2024-02-21T03:52:06;5.38;;;2.33;;
15764;SDS011;7983;50.744;7.086;2024-02-21T03:54:34;3.67;;;2.15;;
15764;SDS011;7983;50.744;7.086;2024-02-21T03:56:59;5.57;;;2.70;;
15764;SDS011;7983;50.744;7.086;2024-02-21T03:59:27;3.88;;;2.30;;
15764;SDS011;7983;50.744;7.086;2024-02-21T04:01:55;4.97;;;2.58;;
15764;SDS011;7983;50.744;7.086;2024-02-21T04:04:23;5.15;;;2.38;;
15764;SDS011;7983;50.744;7.086;2024-02-21T04:06:49;6.40;;;2.50;;
15764;SDS011;7983;50.744;7.086;2024-02-21T04:09:15;5.53;;;2.50;;
15764;SDS011;7983;50.744;7.086;2024-02-21T04:11:41;4.05;;;2.20;;
15764;SDS011;7983;50.744;7.086;2024-02-21T04:14:12;5.35;;;2.47;;
15764;SDS011;7983;50.744;7.086;2024-02-21T04:16:38;5.28;;;2.22;;
15764;SDS011;7983;50.744;7.086;2024-02-21T04:19:06;4.72;;;2.30;;
15764;SDS011;7983;50.744;7.086;2024-02-21T04:21:34;4.43;;;2.45;;
15764;SDS011;7983;50.744;7.086;2024-02-21T04:24:00;5.78;;;2.55;;
15764;SDS011;7983;50.744;7.086;2024-02-21T04:26:27;5.18;;;2.53;;
15764;SDS011;7983;50.744;7.086;2024-02-21T04:28:52;4.22;;;2.40;;
15764;SDS011;7983;50.744;7.086;2024-02-21T04:31:20;5.05;;;2.30;;
15764;SDS011;7983;50.744;7.086;2024-02-21T04:33:46;5.40;;;2.30;;
15764;SDS011;7983;50.744;7.086;2024-02-21T04:36:12;6.20;;;2.22;;
15764;SDS011;7983;50.744;7.086;2024-02-21T04:38:39;4.38;;;2.00;;
15764;SDS011;7983;50.744;7.086;2024-02-21T04:41:05;3.95;;;2.15;;
15764;SDS011;7983;50.744;7.086;2024-02-21T04:43:31;6.10;;;2.65;;
15764;SDS011;7983;50.744;7.086;2024-02-21T04:46:01;4.60;;;2.20;;
15764;SDS011;7983;50.744;7.086;2024-02-21T04:48:27;3.67;;;2.20;;
15764;SDS011;7983;50.744;7.086;2024-02-21T04:50:52;4.43;;;2.17;;
15764;SDS011;7983;50.744;7.086;2024-02-21T04:53:18;4.63;;;2.20;;
15764;SDS011;7983;50.744;7.086;2024-02-21T04:55:43;4.10;;;2.30;;
15764;SDS011;7983;50.744;7.086;2024-02-21T04:58:09;8.30;;;2.85;;
15764;SDS011;7983;50.744;7.086;2024-02-21T05:00:35;5.03;;;2.50;;
15764;SDS011;7983;50.744;7.086;2024-02-21T05:03:03;7.10;;;2.80;;
15764;SDS011;7983;50.744;7.086;2024-02-21T05:05:31;6.68;;;2.65;;
15764;SDS011;7983;50.744;7.086;2024-02-21T05:07:59;3.90;;;2.63;;
15764;SDS011;7983;50.744;7.086;2024-02-21T05:10:24;4.97;;;2.63;;
15764;SDS011;7983;50.744;7.086;2024-02-21T05:12:53;6.75;;;2.58;;
15764;SDS011;7983;50.744;7.086;2024-02-21T05:15:18;6.40;;;2.53;;
15764;SDS011;7983;50.744;7.086;2024-02-21T05:17:46;7.40;;;2.53;;
15764;SDS011;7983;50.744;7.086;2024-02-21T05:20:14;4.63;;;2.50;;
15764;SDS011;7983;50.744;7.086;2024-02-21T05:22:45;7.75;;;2.80;;
15764;SDS011;7983;50.744;7.086;2024-02-21T05:25:10;4.47;;;2.42;;
15764;SDS011;7983;50.744;7.086;2024-02-21T05:27:36;7.93;;;2.60;;
15764;SDS011;7983;50.744;7.086;2024-02-21T05:30:06;6.20;;;2.50;;
15764;SDS011;7983;50.744;7.086;2024-02-21T05:32:32;6.85;;;2.30;;
15764;SDS011;7983;50.744;7.086;2024-02-21T05:35:02;6.03;;;2.20;;
15764;SDS011;7983;50.744;7.086;2024-02-21T05:37:31;5.50;;;2.47;;
15764;SDS011;7983;50.744;7.086;2024-02-21T05:39:56;5.88;;;2.45;;
15764;SDS011;7983;50.744;7.086;2024-02-21T05:42:22;5.88;;;2.40;;
15764;SDS011;7983;50.744;7.086;2024-02-21T05:44:47;4.55;;;2.30;;
15764;SDS011;7983;50.744;7.086;2024-02-21T05:47:13;6.45;;;2.45;;
15764;SDS011;7983;50.744;7.086;2024-02-21T05:49:40;5.18;;;2.17;;
15764;SDS011;7983;50.744;7.086;2024-02-21T05:52:08;3.35;;;2.17;;
15764;SDS011;7983;50.744;7.086;2024-02-21T05:54:33;4.05;;;2.08;;
15764;SDS011;7983;50.744;7.086;2024-02-21T05:57:02;4.90;;;2.00;;
15764;SDS011;7983;50.744;7.086;2024-02-21T05:59:28;3.50;;;1.85;;
15764;SDS011;7983;50.744;7.086;2024-02-21T06:01:59;4.35;;;2.15;;
15764;SDS011;7983;50.744;7.086;2024-02-21T06:04:24;4.43;;;2.10;;
15764;SDS011;7983;50.744;7.086;2024-02-21T06:06:52;3.63;;;2.30;;
15764;SDS011;7983;50.744;7.086;2024-02-21T06:09:18;4.97;;;1.98;;
15764;SDS011;7983;50.744;7.086;2024-02-21T06:11:46;2.92;;;1.88;;
15764;SDS011;7983;50.744;7.086;2024-02-21T06:14:17;6.03;;;2.20;;
15764;SDS011;7983;50.744;7.086;2024-02-21T06:16:43;4.30;;;2.08;;
15764;SDS011;7983;50.744;7.086;2024-02-21T06:19:09;5.60;;;2.15;;
15764;SDS011;7983;50.744;7.086;2024-02-21T06:21:37;5.30;;;1.63;;
15764;SDS011;7983;50.744;7.086;2024-02-21T06:24:07;5.90;;;1.98;;
15764;SDS011;7983;50.744;7.086;2024-02-21T06:26:35;5.32;;;2.20;;
15764;SDS011;7983;50.744;7.086;2024-02-21T06:29:00;4.63;;;2.05;;
15764;SDS011;7983;50.744;7.086;2024-02-21T06:31:31;4.53;;;1.88;;
15764;SDS011;7983;50.744;7.086;2024-02-21T06:33:59;4.75;;;2.00;;
15764;SDS011;7983;50.744;7.086;2024-02-21T06:36:27;3.65;;;1.77;;
15764;SDS011;7983;50.744;7.086;2024-02-21T06:38:52;4.32;;;2.28;;
15764;SDS011;7983;50.744;7.086;2024-02-21T06:41:20;4.78;;;2.08;;
15764;SDS011;7983;50.744;7.086;2024-02-21T06:43:46;5.35;;;2.22;;
15764;SDS011;7983;50.744;7.086;2024-02-21T06:46:27;5.70;;;2.50;;
15764;SDS011;7983;50.744;7.086;2024-02-21T06:48:57;5.68;;;2.38;;
15764;SDS011;7983;50.744;7.086;2024-02-21T06:51:27;4.15;;;2.08;;
15764;SDS011;7983;50.744;7.086;2024-02-21T06:53:53;4.38;;;2.22;;
15764;SDS011;7983;50.744;7.086;2024-02-21T06:56:23;4.72;;;1.95;;
15764;SDS011;7983;50.744;7.086;2024-02-21T06:58:54;4.45;;;2.30;;
15764;SDS011;7983;50.744;7.086;2024-02-21T07:01:22;6.45;;;2.53;;
15764;SDS011;7983;50.744;7.086;2024-02-21T07:03:51;4.50;;;2.63;;
15764;SDS011;7983;50.744;7.086;2024-02-21T07:06:18;7.07;;;2.90;;
15764;SDS011;7983;50.744;7.086;2024-02-21T07:08:44;4.22;;;2.58;;
15764;SDS011;7983;50.744;7.086;2024-02-21T07:11:12;5.53;;;2.38;;
15764;SDS011;7983;50.744;7.086;2024-02-21T07:13:38;5.93;;;2.60;;
15764;SDS011;7983;50.744;7.086;2024-02-21T07:16:03;6.05;;;2.80;;
15764;SDS011;7983;50.744;7.086;2024-02-21T07:18:32;6.47;;;2.90;;
15764;SDS011;7983;50.744;7.086;2024-02-21T07:21:02;5.95;;;2.80;;
15764;SDS011;7983;50.744;7.086;2024-02-21T07:23:28;4.80;;;2.75;;
15764;SDS011;7983;50.744;7.086;2024-02-21T07:25:53;5.55;;;2.83;;
15764;SDS011;7983;50.744;7.086;2024-02-21T07:28:21;5.80;;;2.85;;
15764;SDS011;7983;50.744;7.086;2024-02-21T07:30:49;4.32;;;2.30;;
15764;SDS011;7983;50.744;7.086;2024-02-21T07:33:17;5.93;;;2.63;;
15764;SDS011;7983;50.744;7.086;2024-02-21T07:35:45;6.43;;;2.75;;
15764;SDS011;7983;50.744;7.086;2024-02-21T07:38:11;6.00;;;3.00;;
15764;SDS011;7983;50.744;7.086;2024-02-21T07:40:37;7.63;;;3.58;;
15764;SDS011;7983;50.744;7.086;2024-02-21T07:43:05;6.97;;;3.72;;
15764;SDS011;7983;50.744;7.086;2024-02-21T07:45:35;8.35;;;3.78;;
15764;SDS011;7983;50.744;7.086;2024-02-21T07:48:01;7.78;;;3.40;;
15764;SDS011;7983;50.744;7.086;2024-02-21T07:50:27;9.02;;;3.50;;
15764;SDS011;7983;50.744;7.086;2024-02-21T07:52:53;7.25;;;3.47;;
15764;SDS011;7983;50.744;7.086;2024-02-21T07:55:20;5.60;;;3.03;;
15764;SDS011;7983;50.744;7.086;2024-02-21T07:57:48;7.18;;;4.03;;
15764;SDS011;7983;50.744;7.086;2024-02-21T08:00:14;4.82;;;2.88;;
15764;SDS011;7983;50.744;7.086;2024-02-21T08:02:45;5.30;;;3.00;;
15764;SDS011;7983;50.744;7.086;2024-02-21T08:05:11;6.40;;;2.72;;
15764;SDS011;7983;50.744;7.086;2024-02-21T08:07:39;6.78;;;3.00;;
15764;SDS011;7983;50.744;7.086;2024-02-21T08:10:08;4.22;;;2.30;;
15764;SDS011;7983;50.744;7.086;2024-02-21T08:12:33;5.10;;;2.55;;
15764;SDS011;7983;50.744;7.086;2024-02-21T08:14:59;5.03;;;2.38;;
15764;SDS011;7983;50.744;7.086;2024-02-21T08:17:25;6.03;;;2.45;;
15764;SDS011;7983;50.744;7.086;2024-02-21T08:19:53;4.78;;;3.10;;
15764;SDS011;7983;50.744;7.086;2024-02-21T08:22:21;6.38;;;2.97;;
15764;SDS011;7983;50.744;7.086;2024-02-21T08:24:46;4.63;;;2.58;;
15764;SDS011;7983;50.744;7.086;2024-02-21T08:27:14;4.55;;;2.60;;
15764;SDS011;7983;50.744;7.086;2024-02-21T08:29:42;5.38;;;2.72;;
15764;SDS011;7983;50.744;7.086;2024-02-21T08:32:10;6.68;;;3.20;;
15764;SDS011;7983;50.744;7.086;2024-02-21T08:34:38;5.60;;;2.67;;
15764;SDS011;7983;50.744;7.086;2024-02-21T08:37:04;6.43;;;2.95;;
15764;SDS011;7983;50.744;7.086;2024-02-21T08:39:29;4.75;;;2.58;;
15764;SDS011;7983;50.744;7.086;2024-02-21T08:41:57;7.05;;;2.78;;
15764;SDS011;7983;50.744;7.086;2024-02-21T08:44:27;6.15;;;2.70;;
15764;SDS011;7983;50.744;7.086;2024-02-21T08:46:57;5.25;;;2.50;;
15764;SDS011;7983;50.744;7.086;2024-02-21T08:49:23;6.60;;;2.72;;
15764;SDS011;7983;50.744;7.086;2024-02-21T08:51:52;6.30;;;2.65;;
15764;SDS011;7983;50.744;7.086;2024-02-21T08:54:20;7.07;;;2.92;;
15764;SDS011;7983;50.744;7.086;2024-02-21T08:56:45;9.07;;;2.88;;
15764;SDS011;7983;50.744;7.086;2024-02-21T08:59:11;6.35;;;2.88;;
15764;SDS011;7983;50.744;7.086;2024-02-21T09:01:37;9.30;;;2.90;;
15764;SDS011;7983;50.744;7.086;2024-02-21T09:04:02;8.40;;;3.15;;
15764;SDS011;7983;50.744;7.086;2024-02-21T09:06:28;5.93;;;2.90;;
15764;SDS011;7983;50.744;7.086;2024-02-21T09:08:56;6.10;;;2.75;;
15764;SDS011;7983;50.744;7.086;2024-02-21T09:11:22;6.20;;;2.50;;
15764;SDS011;7983;50.744;7.086;2024-02-21T09:13:52;6.03;;;2.75;;
15764;SDS011;7983;50.744;7.086;2024-02-21T09:16:20;5.10;;;2.55;;
15764;SDS011;7983;50.744;7.086;2024-02-21T09:18:46;4.15;;;2.30;;
15764;SDS011;7983;50.744;7.086;2024-02-21T09:21:13;7.28;;;2.88;;
15764;SDS011;7983;50.744;7.086;2024-02-21T09:23:41;6.70;;;2.40;;
15764;SDS011;7983;50.744;7.086;2024-02-21T09:26:07;5.78;;;2.28;;
15764;SDS011;7983;50.744;7.086;2024-02-21T09:28:35;5.25;;;2.58;;
15764;SDS011;7983;50.744;7.086;2024-02-21T09:31:00;6.50;;;2.75;;
15764;SDS011;7983;50.744;7.086;2024-02-21T09:33:27;5.82;;;2.72;;
15764;SDS011;7983;50.744;7.086;2024-02-21T09:35:52;4.40;;;2.58;;
15764;SDS011;7983;50.744;7.086;2024-02-21T09:38:18;6.32;;;2.80;;
15764;SDS011;7983;50.744;7.086;2024-02-21T09:40:47;5.63;;;2.42;;
15764;SDS011;7983;50.744;7.086;2024-02-21T09:43:19;5.43;;;2.70;;
15764;SDS011;7983;50.744;7.086;2024-02-21T09:45:46;5.25;;;2.72;;
15764;SDS011;7983;50.744;7.086;2024-02-21T09:50:59;6.30;;;2.55;;
15764;SDS011;7983;50.744;7.086;2024-02-21T09:53:26;5.68;;;2.50;;
15764;SDS011;7983;50.744;7.086;2024-02-21T09:55:55;6.00;;;2.47;;
15764;SDS011;7983;50.744;7.086;2024-02-21T09:58:23;3.97;;;2.25;;
15764;SDS011;7983;50.744;7.086;2024-02-21T10:00:51;6.82;;;2.25;;
15764;SDS011;7983;50.744;7.086;2024-02-21T10:03:18;4.13;;;2.00;;
15764;SDS011;7983;50.744;7.086;2024-02-21T10:05:47;8.13;;;2.38;;
15764;SDS011;7983;50.744;7.086;2024-02-21T10:08:19;8.48;;;2.83;;
15764;SDS011;7983;50.744;7.086;2024-02-21T10:10:49;5.63;;;2.38;;
15764;SDS011;7983;50.744;7.086;2024-02-21T10:13:27;7.25;;;2.42;;
15764;SDS011;7983;50.744;7.086;2024-02-21T10:16:00;5.53;;;2.58;;
15764;SDS011;7983;50.744;7.086;2024-02-21T10:18:27;7.00;;;2.50;;
15764;SDS011;7983;50.744;7.086;2024-02-21T10:21:02;5.28;;;2.65;;
15764;SDS011;7983;50.744;7.086;2024-02-21T10:26:14;4.70;;;2.45;;
15764;SDS011;7983;50.744;7.086;2024-02-21T10:28:41;5.47;;;2.42;;
15764;SDS011;7983;50.744;7.086;2024-02-21T10:31:21;5.75;;;2.33;;
15764;SDS011;7983;50.744;7.086;2024-02-21T10:33:54;4.25;;;2.17;;
15764;SDS011;7983;50.744;7.086;2024-02-21T10:36:26;7.15;;;2.25;;
15764;SDS011;7983;50.744;7.086;2024-02-21T10:38:52;4.15;;;2.20;;
15764;SDS011;7983;50.744;7.086;2024-02-21T10:41:20;4.93;;;2.13;;
15764;SDS011;7983;50.744;7.086;2024-02-21T10:43:53;3.53;;;1.98;;
15764;SDS011;7983;50.744;7.086;2024-02-21T10:46:20;3.28;;;1.92;;
15764;SDS011;7983;50.744;7.086;2024-02-21T10:48:47;4.20;;;1.88;;
15764;SDS011;7983;50.744;7.086;2024-02-21T10:51:19;3.92;;;1.80;;
15764;SDS011;7983;50.744;7.086;2024-02-21T10:56:33;7.82;;;2.20;;
15764;SDS011;7983;50.744;7.086;2024-02-21T10:59:04;4.93;;;2.40;;
15764;SDS011;7983;50.744;7.086;2024-02-21T11:01:32;6.65;;;2.40;;
15764;SDS011;7983;50.744;7.086;2024-02-21T11:04:04;5.18;;;2.20;;
15764;SDS011;7983;50.744;7.086;2024-02-21T11:06:32;5.05;;;2.10;;
15764;SDS011;7983;50.744;7.086;2024-02-21T11:11:34;2.80;;;1.58;;
15764;SDS011;7983;50.744;7.086;2024-02-21T11:14:19;3.58;;;2.08;;
15764;SDS011;7983;50.744;7.086;2024-02-21T11:16:46;5.93;;;2.10;;
15764;SDS011;7983;50.744;7.086;2024-02-21T11:19:22;4.63;;;2.03;;
15764;SDS011;7983;50.744;7.086;2024-02-21T11:21:52;4.05;;;1.65;;
15764;SDS011;7983;50.744;7.086;2024-02-21T11:24:30;3.97;;;1.95;;
15764;SDS011;7983;50.744;7.086;2024-02-21T11:29:48;5.35;;;1.88;;
15764;SDS011;7983;50.744;7.086;2024-02-21T11:32:20;4.55;;;1.80;;
15764;SDS011;7983;50.744;7.086;2024-02-21T11:34:58;4.50;;;1.90;;
15764;SDS011;7983;50.744;7.086;2024-02-21T11:37:29;4.70;;;2.17;;
15764;SDS011;7983;50.744;7.086;2024-02-21T11:39:59;4.93;;;1.95;;
15764;SDS011;7983;50.744;7.086;2024-02-21T11:42:26;4.57;;;2.00;;
15764;SDS011;7983;50.744;7.086;2024-02-21T11:44:52;5.10;;;2.15;;
15764;SDS011;7983;50.744;7.086;2024-02-21T11:47:18;5.47;;;2.45;;
15764;SDS011;7983;50.744;7.086;2024-02-21T11:49:45;4.32;;;2.13;;
15764;SDS011;7983;50.744;7.086;2024-02-21T11:52:11;3.90;;;1.80;;
15764;SDS011;7983;50.744;7.086;2024-02-21T11:54:42;4.85;;;2.22;;
15764;SDS011;7983;50.744;7.086;2024-02-21T11:57:11;3.42;;;2.10;;
15764;SDS011;7983;50.744;7.086;2024-02-21T11:59:39;5.28;;;1.88;;
15764;SDS011;7983;50.744;7.086;2024-02-21T12:02:05;3.08;;;1.90;;
15764;SDS011;7983;50.744;7.086;2024-02-21T12:04:32;6.03;;;2.17;;
15764;SDS011;7983;50.744;7.086;2024-02-21T12:07:01;5.05;;;1.98;;
15764;SDS011;7983;50.744;7.086;2024-02-21T12:09:29;4.25;;;2.00;;
15764;SDS011;7983;50.744;7.086;2024-02-21T12:12:05;4.60;;;2.22;;
15764;SDS011;7983;50.744;7.086;2024-02-21T12:14:35;6.35;;;2.30;;
15764;SDS011;7983;50.744;7.086;2024-02-21T12:17:06;5.22;;;2.15;;
15764;SDS011;7983;50.744;7.086;2024-02-21T12:19:32;4.45;;;2.00;;
15764;SDS011;7983;50.744;7.086;2024-02-21T12:21:59;4.20;;;1.73;;
15764;SDS011;7983;50.744;7.086;2024-02-21T12:24:25;5.43;;;2.30;;
15764;SDS011;7983;50.744;7.086;2024-02-21T12:26:52;4.18;;;2.10;;
15764;SDS011;7983;50.744;7.086;2024-02-21T12:29:23;3.63;;;1.85;;
15764;SDS011;7983;50.744;7.086;2024-02-21T12:31:49;4.28;;;2.35;;
15764;SDS011;7983;50.744;7.086;2024-02-21T12:34:19;3.05;;;1.92;;
15764;SDS011;7983;50.744;7.086;2024-02-21T12:36:49;4.97;;;1.85;;
15764;SDS011;7983;50.744;7.086;2024-02-21T12:39:14;4.82;;;1.98;;
15764;SDS011;7983;50.744;7.086;2024-02-21T12:41:40;2.53;;;1.75;;
15764;SDS011;7983;50.744;7.086;2024-02-21T12:44:08;4.10;;;2.05;;
15764;SDS011;7983;50.744;7.086;2024-02-21T12:46:38;3.65;;;1.83;;
15764;SDS011;7983;50.744;7.086;2024-02-21T12:49:07;5.65;;;2.58;;
15764;SDS011;7983;50.744;7.086;2024-02-21T12:51:35;5.13;;;2.22;;
15764;SDS011;7983;50.744;7.086;2024-02-21T12:54:01;3.05;;;1.70;;
15764;SDS011;7983;50.744;7.086;2024-02-21T12:56:29;4.45;;;1.98;;
15764;SDS011;7983;50.744;7.086;2024-02-21T12:58:56;5.57;;;2.22;;
15764;SDS011;7983;50.744;7.086;2024-02-21T13:01:22;4.30;;;2.08;;
15764;SDS011;7983;50.744;7.086;2024-02-21T13:03:48;3.97;;;1.70;;
15764;SDS011;7983;50.744;7.086;2024-02-21T13:06:15;3.33;;;1.70;;
15764;SDS011;7983;50.744;7.086;2024-02-21T13:08:41;4.13;;;1.95;;
15764;SDS011;7983;50.744;7.086;2024-02-21T13:11:12;5.47;;;2.25;;
15764;SDS011;7983;50.744;7.086;2024-02-21T13:13:43;3.80;;;1.85;;
15764;SDS011;7983;50.744;7.086;2024-02-21T13:16:08;2.85;;;1.48;;
15764;SDS011;7983;50.744;7.086;2024-02-21T13:18:37;2.97;;;1.70;;
15764;SDS011;7983;50.744;7.086;2024-02-21T13:21:07;3.35;;;1.67;;
15764;SDS011;7983;50.744;7.086;2024-02-21T13:23:33;3.67;;;1.63;;
15764;SDS011;7983;50.744;7.086;2024-02-21T13:25:58;4.22;;;1.77;;
15764;SDS011;7983;50.744;7.086;2024-02-21T13:28:24;3.53;;;1.98;;
15764;SDS011;7983;50.744;7.086;2024-02-21T13:30:49;3.30;;;1.98;;
15764;SDS011;7983;50.744;7.086;2024-02-21T13:33:15;4.53;;;1.90;;
15764;SDS011;7983;50.744;7.086;2024-02-21T13:35:44;6.30;;;2.17;;
15764;SDS011;7983;50.744;7.086;2024-02-21T13:38:10;2.92;;;1.80;;
15764;SDS011;7983;50.744;7.086;2024-02-21T13:40:38;3.47;;;1.75;;
15764;SDS011;7983;50.744;7.086;2024-02-21T13:43:04;6.70;;;2.30;;
15764;SDS011;7983;50.744;7.086;2024-02-21T13:45:29;5.68;;;1.92;;
15764;SDS011;7983;50.744;7.086;2024-02-21T13:47:58;4.38;;;2.10;;
15764;SDS011;7983;50.744;7.086;2024-02-21T13:50:27;2.85;;;1.45;;
15764;SDS011;7983;50.744;7.086;2024-02-21T13:52:58;3.72;;;1.80;;
15764;SDS011;7983;50.744;7.086;2024-02-21T13:55:23;5.05;;;1.70;;
15764;SDS011;7983;50.744;7.086;2024-02-21T13:57:52;2.40;;;1.70;;
15764;SDS011;7983;50.744;7.086;2024-02-21T14:00:17;3.35;;;1.60;;
15764;SDS011;7983;50.744;7.086;2024-02-21T14:02:46;2.88;;;1.58;;
15764;SDS011;7983;50.744;7.086;2024-02-21T14:05:11;3.90;;;1.50;;
15764;SDS011;7983;50.744;7.086;2024-02-21T14:07:38;4.38;;;1.80;;
15764;SDS011;7983;50.744;7.086;2024-02-21T14:10:06;4.97;;;1.80;;
15764;SDS011;7983;50.744;7.086;2024-02-21T14:12:34;3.97;;;1.98;;
15764;SDS011;7983;50.744;7.086;2024-02-21T14:15:00;4.28;;;1.98;;
15764;SDS011;7983;50.744;7.086;2024-02-21T14:17:25;3.25;;;1.55;;
15764;SDS011;7983;50.744;7.086;2024-02-21T14:19:53;4.10;;;1.90;;
15764;SDS011;7983;50.744;7.086;2024-02-21T14:22:19;4.65;;;1.92;;
15764;SDS011;7983;50.744;7.086;2024-02-21T14:24:47;4.63;;;1.70;;
15764;SDS011;7983;50.744;7.086;2024-02-21T14:27:15;3.40;;;1.50;;
15764;SDS011;7983;50.744;7.086;2024-02-21T14:29:40;2.78;;;1.63;;
15764;SDS011;7983;50.744;7.086;2024-02-21T14:32:06;4.05;;;1.85;;
15764;SDS011;7983;50.744;7.086;2024-02-21T14:34:34;4.03;;;1.70;;
15764;SDS011;7983;50.744;7.086;2024-02-21T14:37:00;4.15;;;1.50;;
15764;SDS011;7983;50.744;7.086;2024-02-21T14:39:31;2.03;;;1.17;;
15764;SDS011;7983;50.744;7.086;2024-02-21T14:42:00;4.32;;;1.48;;
15764;SDS011;7983;50.744;7.086;2024-02-21T14:44:26;3.60;;;1.40;;
15764;SDS011;7983;50.744;7.086;2024-02-21T14:46:52;3.00;;;1.30;;
15764;SDS011;7983;50.744;7.086;2024-02-21T14:49:18;4.15;;;1.50;;
15764;SDS011;7983;50.744;7.086;2024-02-21T14:51:47;3.03;;;1.50;;
15764;SDS011;7983;50.744;7.086;2024-02-21T14:54:19;2.25;;;1.35;;
15764;SDS011;7983;50.744;7.086;2024-02-21T14:56:45;5.88;;;1.60;;
15764;SDS011;7983;50.744;7.086;2024-02-21T14:59:12;3.75;;;1.30;;
15764;SDS011;7983;50.744;7.086;2024-02-21T15:01:37;5.03;;;1.83;;
15764;SDS011;7983;50.744;7.086;2024-02-21T15:04:03;3.83;;;1.67;;
15764;SDS011;7983;50.744;7.086;2024-02-21T15:06:32;3.58;;;1.52;;
15764;SDS011;7983;50.744;7.086;2024-02-21T15:08:58;3.55;;;1.50;;
15764;SDS011;7983;50.744;7.086;2024-02-21T15:11:23;4.03;;;1.40;;
15764;SDS011;7983;50.744;7.086;2024-02-21T15:13:53;5.85;;;1.55;;
15764;SDS011;7983;50.744;7.086;2024-02-21T15:16:22;3.90;;;1.20;;